sensor_id;sensor_type;location;lat;lon;timestamp;temperature;humidity
12746;DHT22;6437;53.686;10.030;2022-08-21T00:02:50;18.10;99.90
12746;DHT22;6437;53.686;10.030;2022-08-21T00:05:52;18.10;99.90
12746;DHT22;6437;53.686;10.030;2022-08-21T00:08:54;18.10;99.90
12746;DHT22;6437;53.686;10.030;2022-08-21T00:11:57;18.10;99.90
12746;DHT22;6437;53.686;10.030;2022-08-21T00:14:59;18.00;99.90
12746;DHT22;6437;53.686;10.030;2022-08-21T00:18:01;18.00;99.90
12746;DHT22;6437;53.686;10.030;2022-08-21T00:21:03;17.90;99.90
12746;DHT22;6437;53.686;10.030;2022-08-21T00:24:05;17.80;99.90
12746;DHT22;6437;53.686;10.030;2022-08-21T00:27:08;17.80;99.90
12746;DHT22;6437;53.686;10.030;2022-08-21T00:30:12;17.80;99.90
12746;DHT22;6437;53.686;10.030;2022-08-21T00:33:14;17.70;99.90
12746;DHT22;6437;53.686;10.030;2022-08-21T00:36:16;17.70;99.90
12746;DHT22;6437;53.686;10.030;2022-08-21T00:39:18;17.70;99.90
12746;DHT22;6437;53.686;10.030;2022-08-21T00:42:21;17.70;99.90
12746;DHT22;6437;53.686;10.030;2022-08-21T00:45:23;17.60;99.90
12746;DHT22;6437;53.686;10.030;2022-08-21T00:48:27;17.60;99.90
12746;DHT22;6437;53.686;10.030;2022-08-21T00:51:34;17.60;99.90
12746;DHT22;6437;53.686;10.030;2022-08-21T00:54:39;17.60;99.90
12746;DHT22;6437;53.686;10.030;2022-08-21T00:57:46;17.60;99.90
12746;DHT22;6437;53.686;10.030;2022-08-21T01:00:50;17.60;99.90
12746;DHT22;6437;53.686;10.030;2022-08-21T01:03:52;17.60;99.90
12746;DHT22;6437;53.686;10.030;2022-08-21T01:06:54;17.60;99.90
12746;DHT22;6437;53.686;10.030;2022-08-21T01:09:56;17.60;99.90
12746;DHT22;6437;53.686;10.030;2022-08-21T01:12:59;17.60;99.90
12746;DHT22;6437;53.686;10.030;2022-08-21T01:16:04;17.60;99.90
12746;DHT22;6437;53.686;10.030;2022-08-21T01:19:06;17.60;99.90
12746;DHT22;6437;53.686;10.030;2022-08-21T01:22:11;17.60;99.90
12746;DHT22;6437;53.686;10.030;2022-08-21T01:25:13;17.60;99.90
12746;DHT22;6437;53.686;10.030;2022-08-21T01:28:15;17.50;99.90
12746;DHT22;6437;53.686;10.030;2022-08-21T01:31:19;17.50;99.90
12746;DHT22;6437;53.686;10.030;2022-08-21T01:34:24;17.50;99.90
12746;DHT22;6437;53.686;10.030;2022-08-21T01:37:27;17.50;99.90
12746;DHT22;6437;53.686;10.030;2022-08-21T01:40:29;17.50;99.90
12746;DHT22;6437;53.686;10.030;2022-08-21T01:43:31;17.50;99.90
12746;DHT22;6437;53.686;10.030;2022-08-21T01:46:33;17.40;99.90
12746;DHT22;6437;53.686;10.030;2022-08-21T01:49:35;17.50;99.90
12746;DHT22;6437;53.686;10.030;2022-08-21T01:52:39;17.50;99.90
12746;DHT22;6437;53.686;10.030;2022-08-21T01:55:41;17.40;99.90
12746;DHT22;6437;53.686;10.030;2022-08-21T01:58:44;17.50;99.90
12746;DHT22;6437;53.686;10.030;2022-08-21T02:01:47;17.40;99.90
12746;DHT22;6437;53.686;10.030;2022-08-21T02:04:49;17.40;99.90
12746;DHT22;6437;53.686;10.030;2022-08-21T02:07:54;17.40;99.90
12746;DHT22;6437;53.686;10.030;2022-08-21T02:10:56;17.40;99.90
12746;DHT22;6437;53.686;10.030;2022-08-21T02:13:58;17.40;99.90
12746;DHT22;6437;53.686;10.030;2022-08-21T02:17:00;17.40;99.90
12746;DHT22;6437;53.686;10.030;2022-08-21T02:20:02;17.30;99.90
12746;DHT22;6437;53.686;10.030;2022-08-21T02:23:07;17.40;99.90
12746;DHT22;6437;53.686;10.030;2022-08-21T02:26:10;17.40;99.90
12746;DHT22;6437;53.686;10.030;2022-08-21T02:29:12;17.30;99.90
12746;DHT22;6437;53.686;10.030;2022-08-21T02:32:13;17.30;99.90
12746;DHT22;6437;53.686;10.030;2022-08-21T02:35:15;17.30;99.90
12746;DHT22;6437;53.686;10.030;2022-08-21T02:38:22;17.20;99.90
12746;DHT22;6437;53.686;10.030;2022-08-21T02:41:24;17.30;99.90
12746;DHT22;6437;53.686;10.030;2022-08-21T02:44:26;17.30;99.90
12746;DHT22;6437;53.686;10.030;2022-08-21T02:47:27;17.20;99.90
12746;DHT22;6437;53.686;10.030;2022-08-21T02:50:35;17.20;99.90
12746;DHT22;6437;53.686;10.030;2022-08-21T02:53:38;17.20;99.90
12746;DHT22;6437;53.686;10.030;2022-08-21T02:56:40;17.10;99.90
12746;DHT22;6437;53.686;10.030;2022-08-21T02:59:42;17.10;99.90
12746;DHT22;6437;53.686;10.030;2022-08-21T03:02:44;17.10;99.90
12746;DHT22;6437;53.686;10.030;2022-08-21T03:05:47;17.10;99.90
12746;DHT22;6437;53.686;10.030;2022-08-21T03:08:50;17.10;99.90
12746;DHT22;6437;53.686;10.030;2022-08-21T03:11:52;17.10;99.90
12746;DHT22;6437;53.686;10.030;2022-08-21T03:14:54;17.00;99.90
12746;DHT22;6437;53.686;10.030;2022-08-21T03:17:56;17.00;99.90
12746;DHT22;6437;53.686;10.030;2022-08-21T03:20:58;17.00;99.90
12746;DHT22;6437;53.686;10.030;2022-08-21T03:24:01;16.90;99.90
12746;DHT22;6437;53.686;10.030;2022-08-21T03:27:03;16.90;99.90
12746;DHT22;6437;53.686;10.030;2022-08-21T03:30:07;16.90;99.90
12746;DHT22;6437;53.686;10.030;2022-08-21T03:33:10;16.80;99.90
12746;DHT22;6437;53.686;10.030;2022-08-21T03:36:12;16.80;99.90
12746;DHT22;6437;53.686;10.030;2022-08-21T03:39:15;16.80;99.90
12746;DHT22;6437;53.686;10.030;2022-08-21T03:42:17;16.80;99.90
12746;DHT22;6437;53.686;10.030;2022-08-21T03:45:19;16.80;99.90
12746;DHT22;6437;53.686;10.030;2022-08-21T03:48:20;16.60;99.90
12746;DHT22;6437;53.686;10.030;2022-08-21T03:51:22;16.60;99.90
12746;DHT22;6437;53.686;10.030;2022-08-21T03:54:25;16.60;99.90
12746;DHT22;6437;53.686;10.030;2022-08-21T03:57:27;16.60;99.90
12746;DHT22;6437;53.686;10.030;2022-08-21T04:00:29;16.60;99.90
12746;DHT22;6437;53.686;10.030;2022-08-21T04:03:30;16.70;99.90
12746;DHT22;6437;53.686;10.030;2022-08-21T04:06:32;16.70;99.90
12746;DHT22;6437;53.686;10.030;2022-08-21T04:09:35;16.60;99.90
12746;DHT22;6437;53.686;10.030;2022-08-21T04:12:37;16.70;99.90
12746;DHT22;6437;53.686;10.030;2022-08-21T04:15:38;16.70;99.90
12746;DHT22;6437;53.686;10.030;2022-08-21T04:18:41;16.70;99.90
12746;DHT22;6437;53.686;10.030;2022-08-21T04:24:46;16.60;99.90
12746;DHT22;6437;53.686;10.030;2022-08-21T04:27:48;16.70;99.90
12746;DHT22;6437;53.686;10.030;2022-08-21T04:30:51;16.70;99.90
12746;DHT22;6437;53.686;10.030;2022-08-21T04:33:53;16.60;99.90
12746;DHT22;6437;53.686;10.030;2022-08-21T04:36:54;16.60;99.90
12746;DHT22;6437;53.686;10.030;2022-08-21T04:39:57;16.60;99.90
12746;DHT22;6437;53.686;10.030;2022-08-21T04:43:02;16.60;99.90
12746;DHT22;6437;53.686;10.030;2022-08-21T04:46:04;16.60;99.90
12746;DHT22;6437;53.686;10.030;2022-08-21T04:49:06;16.60;99.90
12746;DHT22;6437;53.686;10.030;2022-08-21T04:52:07;16.70;99.90
12746;DHT22;6437;53.686;10.030;2022-08-21T04:55:10;16.60;99.90
12746;DHT22;6437;53.686;10.030;2022-08-21T04:58:13;16.60;99.90
12746;DHT22;6437;53.686;10.030;2022-08-21T05:01:17;16.60;99.90
12746;DHT22;6437;53.686;10.030;2022-08-21T05:04:21;16.70;99.90
12746;DHT22;6437;53.686;10.030;2022-08-21T05:07:24;16.70;99.90
12746;DHT22;6437;53.686;10.030;2022-08-21T05:10:29;16.70;99.90
12746;DHT22;6437;53.686;10.030;2022-08-21T05:13:32;16.70;99.90
12746;DHT22;6437;53.686;10.030;2022-08-21T05:16:34;16.70;99.90
12746;DHT22;6437;53.686;10.030;2022-08-21T05:19:36;16.80;99.90
12746;DHT22;6437;53.686;10.030;2022-08-21T05:22:37;17.20;99.90
12746;DHT22;6437;53.686;10.030;2022-08-21T05:25:40;16.80;99.90
12746;DHT22;6437;53.686;10.030;2022-08-21T05:28:43;16.90;99.90
12746;DHT22;6437;53.686;10.030;2022-08-21T05:31:45;16.90;99.90
12746;DHT22;6437;53.686;10.030;2022-08-21T05:34:47;16.90;99.90
12746;DHT22;6437;53.686;10.030;2022-08-21T05:37:49;16.80;99.90
12746;DHT22;6437;53.686;10.030;2022-08-21T05:40:52;17.00;99.90
12746;DHT22;6437;53.686;10.030;2022-08-21T05:43:54;17.00;99.90
12746;DHT22;6437;53.686;10.030;2022-08-21T05:47:01;17.10;99.90
12746;DHT22;6437;53.686;10.030;2022-08-21T05:50:03;17.10;99.90
12746;DHT22;6437;53.686;10.030;2022-08-21T05:53:05;17.10;99.90
12746;DHT22;6437;53.686;10.030;2022-08-21T05:56:08;17.20;99.90
12746;DHT22;6437;53.686;10.030;2022-08-21T05:59:10;17.20;99.90
12746;DHT22;6437;53.686;10.030;2022-08-21T06:02:13;17.20;99.90
12746;DHT22;6437;53.686;10.030;2022-08-21T06:05:15;17.30;99.90
12746;DHT22;6437;53.686;10.030;2022-08-21T06:08:17;17.30;99.90
12746;DHT22;6437;53.686;10.030;2022-08-21T06:11:20;17.30;99.90
12746;DHT22;6437;53.686;10.030;2022-08-21T06:14:21;17.40;99.90
12746;DHT22;6437;53.686;10.030;2022-08-21T06:17:23;17.40;99.90
12746;DHT22;6437;53.686;10.030;2022-08-21T06:20:25;17.50;99.90
12746;DHT22;6437;53.686;10.030;2022-08-21T06:23:26;17.50;99.90
12746;DHT22;6437;53.686;10.030;2022-08-21T06:26:29;17.50;99.90
12746;DHT22;6437;53.686;10.030;2022-08-21T06:29:31;17.60;99.90
12746;DHT22;6437;53.686;10.030;2022-08-21T06:32:33;17.60;99.90
12746;DHT22;6437;53.686;10.030;2022-08-21T06:35:35;17.70;99.90
12746;DHT22;6437;53.686;10.030;2022-08-21T06:38:37;17.70;99.90
12746;DHT22;6437;53.686;10.030;2022-08-21T06:41:40;17.80;99.90
12746;DHT22;6437;53.686;10.030;2022-08-21T06:44:42;17.90;99.90
12746;DHT22;6437;53.686;10.030;2022-08-21T06:47:43;17.90;99.90
12746;DHT22;6437;53.686;10.030;2022-08-21T06:50:45;18.20;99.90
12746;DHT22;6437;53.686;10.030;2022-08-21T06:53:47;18.10;99.90
12746;DHT22;6437;53.686;10.030;2022-08-21T06:56:51;18.10;99.90
12746;DHT22;6437;53.686;10.030;2022-08-21T06:59:52;18.20;99.90
12746;DHT22;6437;53.686;10.030;2022-08-21T07:02:54;18.30;99.90
12746;DHT22;6437;53.686;10.030;2022-08-21T07:05:56;18.30;99.90
12746;DHT22;6437;53.686;10.030;2022-08-21T07:08:58;18.40;99.90
12746;DHT22;6437;53.686;10.030;2022-08-21T07:12:03;18.40;99.90
12746;DHT22;6437;53.686;10.030;2022-08-21T07:15:05;18.50;99.90
12746;DHT22;6437;53.686;10.030;2022-08-21T07:18:07;18.50;99.90
12746;DHT22;6437;53.686;10.030;2022-08-21T07:21:08;18.60;99.90
12746;DHT22;6437;53.686;10.030;2022-08-21T07:24:11;18.60;99.90
12746;DHT22;6437;53.686;10.030;2022-08-21T07:27:14;18.70;99.90
12746;DHT22;6437;53.686;10.030;2022-08-21T07:30:16;18.70;99.90
12746;DHT22;6437;53.686;10.030;2022-08-21T07:33:18;18.80;99.90
12746;DHT22;6437;53.686;10.030;2022-08-21T07:36:19;18.90;99.90
12746;DHT22;6437;53.686;10.030;2022-08-21T07:39:21;18.90;99.90
12746;DHT22;6437;53.686;10.030;2022-08-21T07:42:24;19.00;99.90
12746;DHT22;6437;53.686;10.030;2022-08-21T07:45:26;19.00;99.90
12746;DHT22;6437;53.686;10.030;2022-08-21T07:48:27;19.10;99.90
12746;DHT22;6437;53.686;10.030;2022-08-21T07:51:29;19.20;99.90
12746;DHT22;6437;53.686;10.030;2022-08-21T07:54:30;19.20;99.90
12746;DHT22;6437;53.686;10.030;2022-08-21T07:57:33;19.30;99.90
12746;DHT22;6437;53.686;10.030;2022-08-21T08:00:35;19.40;99.90
12746;DHT22;6437;53.686;10.030;2022-08-21T08:03:37;19.40;99.90
12746;DHT22;6437;53.686;10.030;2022-08-21T08:06:39;19.50;99.90
12746;DHT22;6437;53.686;10.030;2022-08-21T08:09:40;19.50;99.90
12746;DHT22;6437;53.686;10.030;2022-08-21T08:12:44;19.60;99.90
12746;DHT22;6437;53.686;10.030;2022-08-21T08:15:46;19.70;99.90
12746;DHT22;6437;53.686;10.030;2022-08-21T08:18:48;19.80;99.90
12746;DHT22;6437;53.686;10.030;2022-08-21T08:21:51;19.80;99.90
12746;DHT22;6437;53.686;10.030;2022-08-21T08:24:53;20.00;99.90
12746;DHT22;6437;53.686;10.030;2022-08-21T08:27:57;19.90;99.90
12746;DHT22;6437;53.686;10.030;2022-08-21T08:30:58;20.00;99.90
12746;DHT22;6437;53.686;10.030;2022-08-21T08:34:00;20.00;99.90
12746;DHT22;6437;53.686;10.030;2022-08-21T08:37:02;20.10;99.90
12746;DHT22;6437;53.686;10.030;2022-08-21T08:40:04;20.20;99.90
12746;DHT22;6437;53.686;10.030;2022-08-21T08:43:07;20.20;99.90
12746;DHT22;6437;53.686;10.030;2022-08-21T08:46:11;20.30;99.90
12746;DHT22;6437;53.686;10.030;2022-08-21T08:49:13;20.30;99.90
12746;DHT22;6437;53.686;10.030;2022-08-21T08:52:17;20.40;99.90
12746;DHT22;6437;53.686;10.030;2022-08-21T08:55:22;20.50;99.90
12746;DHT22;6437;53.686;10.030;2022-08-21T08:58:27;20.50;99.90
12746;DHT22;6437;53.686;10.030;2022-08-21T09:01:30;20.50;99.90
12746;DHT22;6437;53.686;10.030;2022-08-21T09:04:32;20.60;99.90
12746;DHT22;6437;53.686;10.030;2022-08-21T09:07:35;20.60;99.90
12746;DHT22;6437;53.686;10.030;2022-08-21T09:10:44;20.70;99.90
12746;DHT22;6437;53.686;10.030;2022-08-21T09:13:53;20.70;99.90
12746;DHT22;6437;53.686;10.030;2022-08-21T09:16:59;20.80;99.90
12746;DHT22;6437;53.686;10.030;2022-08-21T09:20:08;20.90;99.90
12746;DHT22;6437;53.686;10.030;2022-08-21T09:23:17;20.90;99.90
12746;DHT22;6437;53.686;10.030;2022-08-21T09:26:24;21.00;99.90
12746;DHT22;6437;53.686;10.030;2022-08-21T09:29:28;21.00;99.90
12746;DHT22;6437;53.686;10.030;2022-08-21T09:32:33;21.10;99.90
12746;DHT22;6437;53.686;10.030;2022-08-21T09:35:35;21.10;99.90
12746;DHT22;6437;53.686;10.030;2022-08-21T09:38:37;21.20;99.90
12746;DHT22;6437;53.686;10.030;2022-08-21T09:41:39;21.20;99.90
12746;DHT22;6437;53.686;10.030;2022-08-21T09:44:42;21.20;99.90
12746;DHT22;6437;53.686;10.030;2022-08-21T09:47:44;21.30;99.90
12746;DHT22;6437;53.686;10.030;2022-08-21T09:50:47;21.40;99.90
12746;DHT22;6437;53.686;10.030;2022-08-21T09:53:51;21.40;99.90
12746;DHT22;6437;53.686;10.030;2022-08-21T09:56:55;21.40;99.90
12746;DHT22;6437;53.686;10.030;2022-08-21T10:00:18;21.50;99.90
12746;DHT22;6437;53.686;10.030;2022-08-21T10:03:20;21.50;99.90
12746;DHT22;6437;53.686;10.030;2022-08-21T10:06:26;21.60;99.90
12746;DHT22;6437;53.686;10.030;2022-08-21T10:09:28;21.70;99.90
12746;DHT22;6437;53.686;10.030;2022-08-21T10:12:33;21.70;99.90
12746;DHT22;6437;53.686;10.030;2022-08-21T10:15:44;21.70;99.90
12746;DHT22;6437;53.686;10.030;2022-08-21T10:18:48;21.80;99.90
12746;DHT22;6437;53.686;10.030;2022-08-21T10:21:58;21.80;99.90
12746;DHT22;6437;53.686;10.030;2022-08-21T10:25:02;21.80;99.90
12746;DHT22;6437;53.686;10.030;2022-08-21T10:28:17;21.80;99.90
12746;DHT22;6437;53.686;10.030;2022-08-21T10:31:24;21.90;99.90
12746;DHT22;6437;53.686;10.030;2022-08-21T10:34:31;22.10;99.90
12746;DHT22;6437;53.686;10.030;2022-08-21T10:37:37;22.00;99.90
12746;DHT22;6437;53.686;10.030;2022-08-21T10:40:42;22.10;99.90
12746;DHT22;6437;53.686;10.030;2022-08-21T10:43:50;22.10;99.90
12746;DHT22;6437;53.686;10.030;2022-08-21T10:46:56;22.20;99.90
12746;DHT22;6437;53.686;10.030;2022-08-21T10:50:04;22.20;99.90
12746;DHT22;6437;53.686;10.030;2022-08-21T10:53:20;22.30;99.90
12746;DHT22;6437;53.686;10.030;2022-08-21T10:56:25;22.30;99.90
12746;DHT22;6437;53.686;10.030;2022-08-21T10:59:28;22.40;99.90
12746;DHT22;6437;53.686;10.030;2022-08-21T11:02:33;22.40;99.90
12746;DHT22;6437;53.686;10.030;2022-08-21T11:05:38;22.40;99.90
12746;DHT22;6437;53.686;10.030;2022-08-21T11:08:42;22.40;99.90
12746;DHT22;6437;53.686;10.030;2022-08-21T11:11:46;22.50;99.90
12746;DHT22;6437;53.686;10.030;2022-08-21T11:14:51;22.50;99.90
12746;DHT22;6437;53.686;10.030;2022-08-21T11:17:59;22.60;99.90
12746;DHT22;6437;53.686;10.030;2022-08-21T11:21:04;22.70;99.90
12746;DHT22;6437;53.686;10.030;2022-08-21T11:27:28;22.80;99.90
12746;DHT22;6437;53.686;10.030;2022-08-21T11:30:37;23.00;99.90
12746;DHT22;6437;53.686;10.030;2022-08-21T11:33:50;23.00;99.90
12746;DHT22;6437;53.686;10.030;2022-08-21T11:36:59;23.00;99.90
12746;DHT22;6437;53.686;10.030;2022-08-21T11:40:04;23.00;99.90
12746;DHT22;6437;53.686;10.030;2022-08-21T11:43:10;23.00;99.90
12746;DHT22;6437;53.686;10.030;2022-08-21T11:46:17;23.00;99.90
12746;DHT22;6437;53.686;10.030;2022-08-21T11:49:25;23.00;99.90
12746;DHT22;6437;53.686;10.030;2022-08-21T11:52:30;23.10;99.90
12746;DHT22;6437;53.686;10.030;2022-08-21T11:55:34;23.10;99.90
12746;DHT22;6437;53.686;10.030;2022-08-21T11:58:38;23.10;99.90
12746;DHT22;6437;53.686;10.030;2022-08-21T12:01:42;23.20;99.90
12746;DHT22;6437;53.686;10.030;2022-08-21T12:04:47;23.30;99.90
12746;DHT22;6437;53.686;10.030;2022-08-21T12:07:59;23.30;99.90
12746;DHT22;6437;53.686;10.030;2022-08-21T12:11:04;23.40;99.90
12746;DHT22;6437;53.686;10.030;2022-08-21T12:14:12;23.40;99.90
12746;DHT22;6437;53.686;10.030;2022-08-21T12:17:17;23.50;99.90
12746;DHT22;6437;53.686;10.030;2022-08-21T12:20:25;23.70;99.90
12746;DHT22;6437;53.686;10.030;2022-08-21T12:23:29;23.70;99.90
12746;DHT22;6437;53.686;10.030;2022-08-21T12:26:32;23.70;99.90
12746;DHT22;6437;53.686;10.030;2022-08-21T12:29:35;23.70;99.90
12746;DHT22;6437;53.686;10.030;2022-08-21T12:32:42;23.80;99.90
12746;DHT22;6437;53.686;10.030;2022-08-21T12:35:46;23.80;99.90
12746;DHT22;6437;53.686;10.030;2022-08-21T12:38:50;23.80;99.90
12746;DHT22;6437;53.686;10.030;2022-08-21T12:41:54;23.80;99.90
12746;DHT22;6437;53.686;10.030;2022-08-21T12:44:58;23.90;99.90
12746;DHT22;6437;53.686;10.030;2022-08-21T12:48:02;23.80;99.90
12746;DHT22;6437;53.686;10.030;2022-08-21T12:51:09;23.80;99.90
12746;DHT22;6437;53.686;10.030;2022-08-21T12:54:21;23.80;99.10
12746;DHT22;6437;53.686;10.030;2022-08-21T12:57:23;23.90;98.20
12746;DHT22;6437;53.686;10.030;2022-08-21T13:00:26;23.90;98.30
12746;DHT22;6437;53.686;10.030;2022-08-21T13:03:28;23.90;98.90
12746;DHT22;6437;53.686;10.030;2022-08-21T13:06:36;23.90;98.40
12746;DHT22;6437;53.686;10.030;2022-08-21T13:09:40;23.90;98.60
12746;DHT22;6437;53.686;10.030;2022-08-21T13:12:44;23.90;98.60
12746;DHT22;6437;53.686;10.030;2022-08-21T13:15:47;23.90;98.80
12746;DHT22;6437;53.686;10.030;2022-08-21T13:18:54;23.90;98.20
12746;DHT22;6437;53.686;10.030;2022-08-21T13:21:57;23.90;98.30
12746;DHT22;6437;53.686;10.030;2022-08-21T13:24:59;23.90;98.20
12746;DHT22;6437;53.686;10.030;2022-08-21T13:28:03;23.90;97.80
12746;DHT22;6437;53.686;10.030;2022-08-21T13:31:06;23.80;97.90
12746;DHT22;6437;53.686;10.030;2022-08-21T13:34:09;23.70;97.60
12746;DHT22;6437;53.686;10.030;2022-08-21T13:37:12;23.70;97.80
12746;DHT22;6437;53.686;10.030;2022-08-21T13:40:16;23.70;97.80
12746;DHT22;6437;53.686;10.030;2022-08-21T13:43:20;23.70;97.80
12746;DHT22;6437;53.686;10.030;2022-08-21T13:46:22;23.70;97.20
12746;DHT22;6437;53.686;10.030;2022-08-21T13:49:26;23.70;97.10
12746;DHT22;6437;53.686;10.030;2022-08-21T13:52:31;23.60;96.90
12746;DHT22;6437;53.686;10.030;2022-08-21T13:55:34;23.60;97.00
12746;DHT22;6437;53.686;10.030;2022-08-21T13:58:41;23.60;97.00
12746;DHT22;6437;53.686;10.030;2022-08-21T14:01:48;23.60;97.40
12746;DHT22;6437;53.686;10.030;2022-08-21T14:04:51;23.50;96.90
12746;DHT22;6437;53.686;10.030;2022-08-21T14:07:58;23.60;97.00
12746;DHT22;6437;53.686;10.030;2022-08-21T14:11:02;23.50;97.00
12746;DHT22;6437;53.686;10.030;2022-08-21T14:14:05;23.50;97.20
12746;DHT22;6437;53.686;10.030;2022-08-21T14:17:26;23.40;97.00
12746;DHT22;6437;53.686;10.030;2022-08-21T14:20:28;23.40;97.20
12746;DHT22;6437;53.686;10.030;2022-08-21T14:23:32;23.50;97.20
12746;DHT22;6437;53.686;10.030;2022-08-21T14:26:34;23.40;97.30
12746;DHT22;6437;53.686;10.030;2022-08-21T14:29:38;23.50;96.60
12746;DHT22;6437;53.686;10.030;2022-08-21T14:32:40;23.50;97.40
12746;DHT22;6437;53.686;10.030;2022-08-21T14:35:42;23.70;97.20
12746;DHT22;6437;53.686;10.030;2022-08-21T14:38:45;23.70;96.50
12746;DHT22;6437;53.686;10.030;2022-08-21T14:41:46;23.80;96.00
12746;DHT22;6437;53.686;10.030;2022-08-21T14:44:49;23.90;96.40
12746;DHT22;6437;53.686;10.030;2022-08-21T14:47:51;24.00;96.00
12746;DHT22;6437;53.686;10.030;2022-08-21T14:50:52;24.20;96.00
12746;DHT22;6437;53.686;10.030;2022-08-21T14:53:55;24.40;95.30
12746;DHT22;6437;53.686;10.030;2022-08-21T14:56:59;24.70;95.20
12746;DHT22;6437;53.686;10.030;2022-08-21T15:00:01;24.90;94.90
12746;DHT22;6437;53.686;10.030;2022-08-21T15:03:02;25.20;94.90
12746;DHT22;6437;53.686;10.030;2022-08-21T15:06:05;25.40;94.30
12746;DHT22;6437;53.686;10.030;2022-08-21T15:09:08;25.50;94.40
12746;DHT22;6437;53.686;10.030;2022-08-21T15:12:09;25.60;94.30
12746;DHT22;6437;53.686;10.030;2022-08-21T15:15:14;25.70;93.70
12746;DHT22;6437;53.686;10.030;2022-08-21T15:18:15;25.70;93.40
12746;DHT22;6437;53.686;10.030;2022-08-21T15:21:17;25.60;93.30
12746;DHT22;6437;53.686;10.030;2022-08-21T15:24:20;25.50;92.90
12746;DHT22;6437;53.686;10.030;2022-08-21T15:27:21;25.40;93.10
12746;DHT22;6437;53.686;10.030;2022-08-21T15:30:23;25.30;93.30
12746;DHT22;6437;53.686;10.030;2022-08-21T15:33:25;25.20;93.40
12746;DHT22;6437;53.686;10.030;2022-08-21T15:36:26;25.20;93.50
12746;DHT22;6437;53.686;10.030;2022-08-21T15:39:29;25.00;93.60
12746;DHT22;6437;53.686;10.030;2022-08-21T15:42:31;25.00;93.80
12746;DHT22;6437;53.686;10.030;2022-08-21T15:45:33;24.80;93.70
12746;DHT22;6437;53.686;10.030;2022-08-21T15:48:35;24.80;93.70
12746;DHT22;6437;53.686;10.030;2022-08-21T15:51:36;24.70;93.80
12746;DHT22;6437;53.686;10.030;2022-08-21T15:54:39;24.70;93.60
12746;DHT22;6437;53.686;10.030;2022-08-21T15:57:43;24.60;93.70
12746;DHT22;6437;53.686;10.030;2022-08-21T16:00:44;24.60;93.70
12746;DHT22;6437;53.686;10.030;2022-08-21T16:03:47;24.50;93.90
12746;DHT22;6437;53.686;10.030;2022-08-21T16:06:50;24.40;93.80
12746;DHT22;6437;53.686;10.030;2022-08-21T16:09:53;24.40;93.70
12746;DHT22;6437;53.686;10.030;2022-08-21T16:12:56;24.30;93.70
12746;DHT22;6437;53.686;10.030;2022-08-21T16:15:58;24.30;93.70
12746;DHT22;6437;53.686;10.030;2022-08-21T16:19:00;24.30;93.70
12746;DHT22;6437;53.686;10.030;2022-08-21T16:22:04;24.30;93.70
12746;DHT22;6437;53.686;10.030;2022-08-21T16:25:07;24.20;93.70
12746;DHT22;6437;53.686;10.030;2022-08-21T16:28:11;24.20;93.80
12746;DHT22;6437;53.686;10.030;2022-08-21T16:31:14;24.20;94.00
12746;DHT22;6437;53.686;10.030;2022-08-21T16:34:17;24.10;93.90
12746;DHT22;6437;53.686;10.030;2022-08-21T16:37:20;24.20;94.10
12746;DHT22;6437;53.686;10.030;2022-08-21T16:40:23;24.10;94.00
12746;DHT22;6437;53.686;10.030;2022-08-21T16:43:27;24.00;93.90
12746;DHT22;6437;53.686;10.030;2022-08-21T16:46:30;24.00;94.00
12746;DHT22;6437;53.686;10.030;2022-08-21T16:49:33;23.90;94.00
12746;DHT22;6437;53.686;10.030;2022-08-21T16:52:34;23.90;94.10
12746;DHT22;6437;53.686;10.030;2022-08-21T16:55:37;23.90;94.20
12746;DHT22;6437;53.686;10.030;2022-08-21T16:58:40;23.90;94.30
12746;DHT22;6437;53.686;10.030;2022-08-21T17:01:42;23.90;94.40
12746;DHT22;6437;53.686;10.030;2022-08-21T17:04:44;23.80;94.60
12746;DHT22;6437;53.686;10.030;2022-08-21T17:07:46;23.80;94.60
12746;DHT22;6437;53.686;10.030;2022-08-21T17:10:49;23.80;94.60
12746;DHT22;6437;53.686;10.030;2022-08-21T17:13:51;23.80;94.70
12746;DHT22;6437;53.686;10.030;2022-08-21T17:16:53;23.70;94.80
12746;DHT22;6437;53.686;10.030;2022-08-21T17:19:55;23.70;95.00
12746;DHT22;6437;53.686;10.030;2022-08-21T17:22:56;23.70;95.70
12746;DHT22;6437;53.686;10.030;2022-08-21T17:25:59;23.70;95.70
12746;DHT22;6437;53.686;10.030;2022-08-21T17:29:01;23.70;95.80
12746;DHT22;6437;53.686;10.030;2022-08-21T17:32:09;23.60;95.90
12746;DHT22;6437;53.686;10.030;2022-08-21T17:35:12;23.60;96.00
12746;DHT22;6437;53.686;10.030;2022-08-21T17:38:13;23.60;96.20
12746;DHT22;6437;53.686;10.030;2022-08-21T17:41:17;23.50;96.90
12746;DHT22;6437;53.686;10.030;2022-08-21T17:44:19;23.50;97.70
12746;DHT22;6437;53.686;10.030;2022-08-21T17:47:21;23.50;98.40
12746;DHT22;6437;53.686;10.030;2022-08-21T17:50:23;23.40;98.50
12746;DHT22;6437;53.686;10.030;2022-08-21T17:53:24;23.40;99.00
12746;DHT22;6437;53.686;10.030;2022-08-21T17:56:29;23.40;99.00
12746;DHT22;6437;53.686;10.030;2022-08-21T17:59:31;23.30;99.30
12746;DHT22;6437;53.686;10.030;2022-08-21T18:02:33;23.30;99.60
12746;DHT22;6437;53.686;10.030;2022-08-21T18:05:35;23.30;99.70
12746;DHT22;6437;53.686;10.030;2022-08-21T18:08:36;23.30;99.90
12746;DHT22;6437;53.686;10.030;2022-08-21T18:11:39;23.20;99.90
12746;DHT22;6437;53.686;10.030;2022-08-21T18:14:41;23.20;99.90
12746;DHT22;6437;53.686;10.030;2022-08-21T18:17:44;23.10;99.90
12746;DHT22;6437;53.686;10.030;2022-08-21T18:20:46;23.10;99.90
12746;DHT22;6437;53.686;10.030;2022-08-21T18:23:47;23.10;99.90
12746;DHT22;6437;53.686;10.030;2022-08-21T18:26:51;23.00;99.90
12746;DHT22;6437;53.686;10.030;2022-08-21T18:29:54;23.00;99.90
12746;DHT22;6437;53.686;10.030;2022-08-21T18:32:56;23.00;99.90
12746;DHT22;6437;53.686;10.030;2022-08-21T18:35:57;22.80;99.90
12746;DHT22;6437;53.686;10.030;2022-08-21T18:38:59;22.80;99.90
12746;DHT22;6437;53.686;10.030;2022-08-21T18:42:02;22.80;99.90
12746;DHT22;6437;53.686;10.030;2022-08-21T18:45:05;22.80;99.90
12746;DHT22;6437;53.686;10.030;2022-08-21T18:48:09;22.70;99.90
12746;DHT22;6437;53.686;10.030;2022-08-21T18:51:11;22.70;99.90
12746;DHT22;6437;53.686;10.030;2022-08-21T18:54:13;22.60;99.90
12746;DHT22;6437;53.686;10.030;2022-08-21T18:57:16;22.50;99.90
12746;DHT22;6437;53.686;10.030;2022-08-21T19:00:18;22.50;99.90
12746;DHT22;6437;53.686;10.030;2022-08-21T19:03:21;22.40;99.90
12746;DHT22;6437;53.686;10.030;2022-08-21T19:06:23;22.40;99.90
12746;DHT22;6437;53.686;10.030;2022-08-21T19:09:25;22.40;99.90
12746;DHT22;6437;53.686;10.030;2022-08-21T19:12:28;22.30;99.90
12746;DHT22;6437;53.686;10.030;2022-08-21T19:15:30;22.30;99.90
12746;DHT22;6437;53.686;10.030;2022-08-21T19:18:32;22.20;99.90
12746;DHT22;6437;53.686;10.030;2022-08-21T19:21:34;22.20;99.90
12746;DHT22;6437;53.686;10.030;2022-08-21T19:24:36;22.10;99.90